sensor_id;sensor_type;location;lat;lon;timestamp;pressure;altitude;pressure_sealevel;temperature;humidity
31501;BME280;31032;49.512;10.892;2022-08-03T00:02:15;97936.94;;;19.47;70.23
31501;BME280;31032;49.512;10.892;2022-08-03T00:04:41;97932.91;;;19.36;70.86
31501;BME280;31032;49.512;10.892;2022-08-03T00:07:06;97936.00;;;19.40;70.61
31501;BME280;31032;49.512;10.892;2022-08-03T00:09:32;97931.53;;;19.40;71.09
31501;BME280;31032;49.512;10.892;2022-08-03T00:11:57;97935.19;;;19.39;71.11
31501;BME280;31032;49.512;10.892;2022-08-03T00:14:22;97938.56;;;19.33;71.04
31501;BME280;31032;49.512;10.892;2022-08-03T00:16:47;97932.25;;;19.34;70.58
31501;BME280;31032;49.512;10.892;2022-08-03T00:19:13;97931.78;;;19.31;71.44
31501;BME280;31032;49.512;10.892;2022-08-03T00:21:38;97929.38;;;19.07;71.90
31501;BME280;31032;49.512;10.892;2022-08-03T00:24:04;97939.78;;;18.85;72.65
31501;BME280;31032;49.512;10.892;2022-08-03T00:26:29;97933.78;;;18.77;72.82
31501;BME280;31032;49.512;10.892;2022-08-03T00:28:55;97939.72;;;18.79;72.68
31501;BME280;31032;49.512;10.892;2022-08-03T00:31:21;97943.25;;;18.86;74.10
31501;BME280;31032;49.512;10.892;2022-08-03T00:33:46;97937.06;;;18.79;74.08
31501;BME280;31032;49.512;10.892;2022-08-03T00:36:11;97937.59;;;18.74;74.22
31501;BME280;31032;49.512;10.892;2022-08-03T00:38:37;97933.41;;;18.80;74.24
31501;BME280;31032;49.512;10.892;2022-08-03T00:41:02;97931.59;;;18.66;73.19
31501;BME280;31032;49.512;10.892;2022-08-03T00:43:27;97937.59;;;18.74;74.90
31501;BME280;31032;49.512;10.892;2022-08-03T00:45:53;97937.34;;;18.84;73.88
31501;BME280;31032;49.512;10.892;2022-08-03T00:48:19;97938.94;;;18.70;73.34
31501;BME280;31032;49.512;10.892;2022-08-03T00:50:45;97941.69;;;18.54;74.71
31501;BME280;31032;49.512;10.892;2022-08-03T00:53:13;97934.84;;;18.45;75.66
31501;BME280;31032;49.512;10.892;2022-08-03T00:55:39;97932.13;;;18.31;76.27
31501;BME280;31032;49.512;10.892;2022-08-03T00:58:06;97928.34;;;18.56;75.41
31501;BME280;31032;49.512;10.892;2022-08-03T01:00:34;97931.69;;;18.50;74.26
31501;BME280;31032;49.512;10.892;2022-08-03T01:03:01;97936.94;;;18.27;75.43
31501;BME280;31032;49.512;10.892;2022-08-03T01:05:26;97940.38;;;18.28;75.96
31501;BME280;31032;49.512;10.892;2022-08-03T01:08:03;97930.22;;;18.17;77.00
31501;BME280;31032;49.512;10.892;2022-08-03T01:11:06;97937.84;;;18.12;77.28
31501;BME280;31032;49.512;10.892;2022-08-03T01:13:43;97937.69;;;18.36;75.50
31501;BME280;31032;49.512;10.892;2022-08-03T01:16:25;97943.81;;;18.06;77.36
31501;BME280;31032;49.512;10.892;2022-08-03T01:28:01;97947.78;;;18.01;76.90
31501;BME280;31032;49.512;10.892;2022-08-03T01:30:32;97947.09;;;18.08;75.93
31501;BME280;31032;49.512;10.892;2022-08-03T01:33:02;97950.69;;;18.07;76.34
31501;BME280;31032;49.512;10.892;2022-08-03T01:35:34;97936.00;;;18.12;76.36
31501;BME280;31032;49.512;10.892;2022-08-03T01:38:04;97940.13;;;18.15;76.29
31501;BME280;31032;49.512;10.892;2022-08-03T01:40:33;97940.25;;;17.90;78.23
31501;BME280;31032;49.512;10.892;2022-08-03T01:43:01;97933.00;;;17.92;77.92
31501;BME280;31032;49.512;10.892;2022-08-03T01:45:28;97936.00;;;18.12;76.48
31501;BME280;31032;49.512;10.892;2022-08-03T01:47:54;97930.69;;;18.20;75.78
31501;BME280;31032;49.512;10.892;2022-08-03T01:50:26;97929.63;;;18.07;76.30
31501;BME280;31032;49.512;10.892;2022-08-03T01:52:53;97931.44;;;17.75;78.26
31501;BME280;31032;49.512;10.892;2022-08-03T01:55:21;97927.00;;;17.76;78.96
31501;BME280;31032;49.512;10.892;2022-08-03T01:57:48;97920.97;;;17.98;76.94
31501;BME280;31032;49.512;10.892;2022-08-03T02:00:15;97925.16;;;17.84;77.24
31501;BME280;31032;49.512;10.892;2022-08-03T02:02:42;97928.50;;;17.70;77.53
31501;BME280;31032;49.512;10.892;2022-08-03T02:05:10;97921.66;;;17.53;78.45
31501;BME280;31032;49.512;10.892;2022-08-03T02:07:39;97919.22;;;17.36;78.63
31501;BME280;31032;49.512;10.892;2022-08-03T02:10:05;97914.19;;;17.10;79.51
31501;BME280;31032;49.512;10.892;2022-08-03T02:12:32;97914.81;;;17.20;79.45
31501;BME280;31032;49.512;10.892;2022-08-03T02:14:59;97913.81;;;17.29;78.83
31501;BME280;31032;49.512;10.892;2022-08-03T02:17:27;97916.91;;;17.41;77.73
31501;BME280;31032;49.512;10.892;2022-08-03T02:19:55;97918.13;;;17.06;78.88
31501;BME280;31032;49.512;10.892;2022-08-03T02:22:23;97917.09;;;17.31;79.17
31501;BME280;31032;49.512;10.892;2022-08-03T02:24:49;97919.25;;;17.28;79.67
31501;BME280;31032;49.512;10.892;2022-08-03T02:27:23;97924.31;;;17.37;79.14
31501;BME280;31032;49.512;10.892;2022-08-03T02:29:55;97922.16;;;17.49;79.65
31501;BME280;31032;49.512;10.892;2022-08-03T02:32:36;97925.34;;;17.28;81.66
31501;BME280;31032;49.512;10.892;2022-08-03T02:35:05;97923.31;;;17.38;80.74
31501;BME280;31032;49.512;10.892;2022-08-03T02:37:34;97929.47;;;17.23;81.38
31501;BME280;31032;49.512;10.892;2022-08-03T02:40:03;97920.00;;;17.44;80.25
31501;BME280;31032;49.512;10.892;2022-08-03T02:42:31;97923.38;;;17.22;80.23
31501;BME280;31032;49.512;10.892;2022-08-03T02:44:59;97920.94;;;16.96;81.95
31501;BME280;31032;49.512;10.892;2022-08-03T02:47:26;97915.56;;;16.82;82.39
31501;BME280;31032;49.512;10.892;2022-08-03T02:49:53;97917.19;;;16.83;83.25
31501;BME280;31032;49.512;10.892;2022-08-03T02:52:22;97916.22;;;16.76;84.42
31501;BME280;31032;49.512;10.892;2022-08-03T02:54:51;97917.84;;;16.77;83.44
31501;BME280;31032;49.512;10.892;2022-08-03T02:57:18;97915.38;;;16.91;83.51
31501;BME280;31032;49.512;10.892;2022-08-03T02:59:45;97911.25;;;17.05;83.09
31501;BME280;31032;49.512;10.892;2022-08-03T03:02:11;97915.84;;;17.03;82.47
31501;BME280;31032;49.512;10.892;2022-08-03T03:04:38;97908.81;;;16.87;84.53
31501;BME280;31032;49.512;10.892;2022-08-03T03:07:04;97915.88;;;16.79;84.41
31501;BME280;31032;49.512;10.892;2022-08-03T03:09:31;97911.09;;;16.74;84.86
31501;BME280;31032;49.512;10.892;2022-08-03T03:12:01;97909.00;;;16.70;84.78
31501;BME280;31032;49.512;10.892;2022-08-03T03:14:27;97919.50;;;16.70;84.59
31501;BME280;31032;49.512;10.892;2022-08-03T03:16:52;97919.50;;;16.78;84.49
31501;BME280;31032;49.512;10.892;2022-08-03T03:19:19;97918.50;;;16.87;84.34
31501;BME280;31032;49.512;10.892;2022-08-03T03:21:46;97911.63;;;16.86;84.17
31501;BME280;31032;49.512;10.892;2022-08-03T03:24:11;97916.22;;;16.76;84.06
31501;BME280;31032;49.512;10.892;2022-08-03T03:26:37;97919.16;;;16.81;84.84
31501;BME280;31032;49.512;10.892;2022-08-03T03:29:05;97923.41;;;17.06;83.00
31501;BME280;31032;49.512;10.892;2022-08-03T03:31:31;97911.06;;;17.23;82.37
31501;BME280;31032;49.512;10.892;2022-08-03T03:33:57;97923.06;;;17.09;82.69
31501;BME280;31032;49.512;10.892;2022-08-03T03:36:23;97918.28;;;17.12;82.41
31501;BME280;31032;49.512;10.892;2022-08-03T03:38:48;97922.44;;;16.99;82.67
31501;BME280;31032;49.512;10.892;2022-08-03T03:41:14;97920.47;;;16.85;83.11
31501;BME280;31032;49.512;10.892;2022-08-03T03:43:39;97926.69;;;16.92;83.43
31501;BME280;31032;49.512;10.892;2022-08-03T03:46:04;97919.81;;;16.75;83.90
31501;BME280;31032;49.512;10.892;2022-08-03T03:48:30;97911.94;;;16.51;85.62
31501;BME280;31032;49.512;10.892;2022-08-03T03:50:55;97919.16;;;16.65;84.14
31501;BME280;31032;49.512;10.892;2022-08-03T03:53:22;97924.69;;;16.38;86.02
31501;BME280;31032;49.512;10.892;2022-08-03T03:55:47;97928.34;;;16.69;84.15
31501;BME280;31032;49.512;10.892;2022-08-03T03:58:13;97920.81;;;16.66;84.83
31501;BME280;31032;49.512;10.892;2022-08-03T04:00:38;97913.91;;;16.65;84.00
31501;BME280;31032;49.512;10.892;2022-08-03T04:03:04;97922.91;;;16.38;85.79
31501;BME280;31032;49.512;10.892;2022-08-03T04:05:29;97926.69;;;16.44;85.76
31501;BME280;31032;49.512;10.892;2022-08-03T04:08:16;97919.31;;;16.71;84.36
31501;BME280;31032;49.512;10.892;2022-08-03T04:11:21;97922.44;;;16.67;82.79
31501;BME280;31032;49.512;10.892;2022-08-03T04:13:54;97923.25;;;16.51;82.69
31501;BME280;31032;49.512;10.892;2022-08-03T04:16:26;97925.22;;;16.41;84.14
31501;BME280;31032;49.512;10.892;2022-08-03T04:19:00;97928.34;;;16.45;84.70
31501;BME280;31032;49.512;10.892;2022-08-03T04:21:27;97930.00;;;16.62;84.48
31501;BME280;31032;49.512;10.892;2022-08-03T04:23:56;97929.97;;;16.46;83.62
31501;BME280;31032;49.512;10.892;2022-08-03T04:26:26;97929.34;;;16.52;84.93
31501;BME280;31032;49.512;10.892;2022-08-03T04:28:53;97939.84;;;16.52;85.40
31501;BME280;31032;49.512;10.892;2022-08-03T04:31:23;97935.22;;;16.46;85.90
31501;BME280;31032;49.512;10.892;2022-08-03T04:33:51;97935.53;;;16.35;87.04
31501;BME280;31032;49.512;10.892;2022-08-03T04:36:21;97928.97;;;16.39;86.87
31501;BME280;31032;49.512;10.892;2022-08-03T04:38:54;97932.28;;;16.41;86.28
31501;BME280;31032;49.512;10.892;2022-08-03T04:41:24;97940.03;;;16.50;86.49
31501;BME280;31032;49.512;10.892;2022-08-03T04:43:53;97940.69;;;16.52;86.90
31501;BME280;31032;49.512;10.892;2022-08-03T04:46:21;97939.81;;;16.44;87.32
31501;BME280;31032;49.512;10.892;2022-08-03T04:48:48;97944.13;;;16.61;86.98
31501;BME280;31032;49.512;10.892;2022-08-03T04:51:14;97943.63;;;16.65;85.45
31501;BME280;31032;49.512;10.892;2022-08-03T04:53:39;97945.78;;;16.78;85.73
31501;BME280;31032;49.512;10.892;2022-08-03T04:56:05;97944.25;;;17.15;83.22
31501;BME280;31032;49.512;10.892;2022-08-03T04:58:31;97954.13;;;17.13;83.37
31501;BME280;31032;49.512;10.892;2022-08-03T05:00:57;97958.56;;;17.13;82.65
31501;BME280;31032;49.512;10.892;2022-08-03T05:03:22;97955.31;;;17.03;84.65
31501;BME280;31032;49.512;10.892;2022-08-03T05:05:47;97951.34;;;16.99;85.68
31501;BME280;31032;49.512;10.892;2022-08-03T05:08:12;97960.13;;;17.38;82.41
31501;BME280;31032;49.512;10.892;2022-08-03T05:10:38;97954.88;;;17.38;82.35
31501;BME280;31032;49.512;10.892;2022-08-03T05:13:03;97959.00;;;17.41;81.78
31501;BME280;31032;49.512;10.892;2022-08-03T05:15:28;97955.41;;;17.50;81.96
31501;BME280;31032;49.512;10.892;2022-08-03T05:17:54;97957.22;;;17.49;82.59
31501;BME280;31032;49.512;10.892;2022-08-03T05:20:19;97963.44;;;17.40;82.95
31501;BME280;31032;49.512;10.892;2022-08-03T05:22:45;97962.41;;;17.65;81.79
31501;BME280;31032;49.512;10.892;2022-08-03T05:25:10;97959.75;;;17.73;81.61
31501;BME280;31032;49.512;10.892;2022-08-03T05:27:35;97963.19;;;17.82;80.96
31501;BME280;31032;49.512;10.892;2022-08-03T05:30:01;97968.41;;;17.90;81.26
31501;BME280;31032;49.512;10.892;2022-08-03T05:32:26;97961.03;;;17.77;81.35
31501;BME280;31032;49.512;10.892;2022-08-03T05:34:51;97975.13;;;17.92;80.86
31501;BME280;31032;49.512;10.892;2022-08-03T05:37:16;97966.72;;;17.97;80.77
31501;BME280;31032;49.512;10.892;2022-08-03T05:39:42;97968.75;;;18.18;81.20
31501;BME280;31032;49.512;10.892;2022-08-03T05:42:07;97979.59;;;18.23;80.62
31501;BME280;31032;49.512;10.892;2022-08-03T05:44:33;97972.03;;;18.20;80.44
31501;BME280;31032;49.512;10.892;2022-08-03T05:46:58;97971.09;;;18.13;83.42
31501;BME280;31032;49.512;10.892;2022-08-03T05:49:23;97968.06;;;18.24;80.75
31501;BME280;31032;49.512;10.892;2022-08-03T05:51:49;97971.75;;;18.15;82.39
31501;BME280;31032;49.512;10.892;2022-08-03T05:54:14;97976.88;;;18.39;82.12
31501;BME280;31032;49.512;10.892;2022-08-03T05:56:40;97970.41;;;18.41;82.29
31501;BME280;31032;49.512;10.892;2022-08-03T05:59:05;97974.84;;;18.49;84.07
31501;BME280;31032;49.512;10.892;2022-08-03T06:01:31;97969.72;;;18.55;84.32
31501;BME280;31032;49.512;10.892;2022-08-03T06:03:57;97973.78;;;18.66;83.99
31501;BME280;31032;49.512;10.892;2022-08-03T06:06:22;97967.69;;;18.80;83.00
31501;BME280;31032;49.512;10.892;2022-08-03T06:08:48;97979.47;;;18.92;82.18
31501;BME280;31032;49.512;10.892;2022-08-03T06:11:13;97982.69;;;19.02;82.51
31501;BME280;31032;49.512;10.892;2022-08-03T06:13:40;97974.72;;;19.10;81.34
31501;BME280;31032;49.512;10.892;2022-08-03T06:16:06;97980.38;;;19.22;82.22
31501;BME280;31032;49.512;10.892;2022-08-03T06:18:31;97981.06;;;19.38;80.69
31501;BME280;31032;49.512;10.892;2022-08-03T06:20:56;97976.41;;;19.40;81.55
31501;BME280;31032;49.512;10.892;2022-08-03T06:23:22;97980.59;;;19.49;82.11
31501;BME280;31032;49.512;10.892;2022-08-03T06:25:47;97982.19;;;19.58;80.81
31501;BME280;31032;49.512;10.892;2022-08-03T06:28:13;97980.09;;;19.68;80.69
31501;BME280;31032;49.512;10.892;2022-08-03T06:30:39;97970.25;;;19.77;80.94
31501;BME280;31032;49.512;10.892;2022-08-03T06:33:05;97973.63;;;19.86;80.60
31501;BME280;31032;49.512;10.892;2022-08-03T06:35:30;97977.78;;;19.95;80.75
31501;BME280;31032;49.512;10.892;2022-08-03T06:37:55;97976.94;;;20.09;81.12
31501;BME280;31032;49.512;10.892;2022-08-03T06:40:22;97974.53;;;20.43;78.24
31501;BME280;31032;49.512;10.892;2022-08-03T06:42:59;97969.03;;;20.44;78.56
31501;BME280;31032;49.512;10.892;2022-08-03T06:45:25;97970.31;;;20.48;78.51
31501;BME280;31032;49.512;10.892;2022-08-03T06:48:08;97973.06;;;20.61;77.29
31501;BME280;31032;49.512;10.892;2022-08-03T06:50:36;97967.31;;;20.73;76.56
31501;BME280;31032;49.512;10.892;2022-08-03T06:53:02;97978.50;;;20.96;76.22
31501;BME280;31032;49.512;10.892;2022-08-03T06:55:28;97975.22;;;21.15;75.40
31501;BME280;31032;49.512;10.892;2022-08-03T06:57:53;97979.63;;;21.29;74.32
31501;BME280;31032;49.512;10.892;2022-08-03T07:00:19;97985.91;;;21.55;73.00
31501;BME280;31032;49.512;10.892;2022-08-03T07:02:45;97993.03;;;21.83;72.77
31501;BME280;31032;49.512;10.892;2022-08-03T07:05:10;97982.13;;;22.05;71.44
31501;BME280;31032;49.512;10.892;2022-08-03T07:07:36;97981.38;;;22.18;70.60
31501;BME280;31032;49.512;10.892;2022-08-03T07:10:03;97986.72;;;22.31;69.62
31501;BME280;31032;49.512;10.892;2022-08-03T07:12:29;97977.13;;;22.30;70.34
31501;BME280;31032;49.512;10.892;2022-08-03T07:14:55;97988.41;;;22.45;70.25
31501;BME280;31032;49.512;10.892;2022-08-03T07:17:21;97984.53;;;22.54;68.74
31501;BME280;31032;49.512;10.892;2022-08-03T07:19:47;97982.56;;;22.82;68.38
31501;BME280;31032;49.512;10.892;2022-08-03T07:22:12;97977.91;;;22.91;66.74
31501;BME280;31032;49.512;10.892;2022-08-03T07:24:38;97978.31;;;22.94;67.93
31501;BME280;31032;49.512;10.892;2022-08-03T07:27:03;97977.50;;;23.13;66.65
31501;BME280;31032;49.512;10.892;2022-08-03T07:29:29;97980.16;;;23.26;65.58
31501;BME280;31032;49.512;10.892;2022-08-03T07:31:54;97976.69;;;23.33;65.17
31501;BME280;31032;49.512;10.892;2022-08-03T07:34:19;97975.28;;;23.50;64.34
31501;BME280;31032;49.512;10.892;2022-08-03T07:36:45;97978.28;;;23.60;63.80
31501;BME280;31032;49.512;10.892;2022-08-03T07:39:10;97979.16;;;23.47;65.04
31501;BME280;31032;49.512;10.892;2022-08-03T07:41:36;97980.34;;;23.71;64.58
31501;BME280;31032;49.512;10.892;2022-08-03T07:44:01;97980.28;;;23.90;63.27
31501;BME280;31032;49.512;10.892;2022-08-03T07:46:27;97977.75;;;24.15;62.41
31501;BME280;31032;49.512;10.892;2022-08-03T07:48:52;97982.84;;;24.23;62.29
31501;BME280;31032;49.512;10.892;2022-08-03T07:51:18;97981.63;;;24.19;62.86
31501;BME280;31032;49.512;10.892;2022-08-03T07:53:43;97974.88;;;24.16;61.89
31501;BME280;31032;49.512;10.892;2022-08-03T07:56:08;97971.09;;;24.37;62.30
31501;BME280;31032;49.512;10.892;2022-08-03T07:58:34;97974.19;;;24.72;60.47
31501;BME280;31032;49.512;10.892;2022-08-03T08:00:59;97972.53;;;24.77;60.88
31501;BME280;31032;49.512;10.892;2022-08-03T08:03:25;97974.00;;;25.04;60.23
31501;BME280;31032;49.512;10.892;2022-08-03T08:05:50;97969.03;;;25.33;59.17
31501;BME280;31032;49.512;10.892;2022-08-03T08:08:16;97968.31;;;25.44;57.40
31501;BME280;31032;49.512;10.892;2022-08-03T08:10:41;97961.84;;;25.58;57.42
31501;BME280;31032;49.512;10.892;2022-08-03T08:13:06;97968.00;;;25.76;57.15
31501;BME280;31032;49.512;10.892;2022-08-03T08:15:32;97969.56;;;25.84;55.68
31501;BME280;31032;49.512;10.892;2022-08-03T08:17:59;97977.06;;;26.12;55.30
31501;BME280;31032;49.512;10.892;2022-08-03T08:20:31;97964.97;;;25.91;54.59
31501;BME280;31032;49.512;10.892;2022-08-03T08:23:02;97969.13;;;26.23;54.32
31501;BME280;31032;49.512;10.892;2022-08-03T08:25:29;97963.97;;;26.69;53.64
31501;BME280;31032;49.512;10.892;2022-08-03T08:27:55;97954.31;;;26.87;52.88
31501;BME280;31032;49.512;10.892;2022-08-03T08:30:22;97969.41;;;26.93;52.71
31501;BME280;31032;49.512;10.892;2022-08-03T08:32:48;97960.69;;;26.97;51.70
31501;BME280;31032;49.512;10.892;2022-08-03T08:35:14;97956.81;;;26.82;53.54
31501;BME280;31032;49.512;10.892;2022-08-03T08:37:40;97959.13;;;27.19;51.63
31501;BME280;31032;49.512;10.892;2022-08-03T08:40:08;97953.78;;;27.19;50.33
31501;BME280;31032;49.512;10.892;2022-08-03T08:42:36;97954.22;;;27.16;51.29
31501;BME280;31032;49.512;10.892;2022-08-03T08:45:02;97961.81;;;27.31;50.30
31501;BME280;31032;49.512;10.892;2022-08-03T08:47:30;97962.06;;;27.52;50.66
31501;BME280;31032;49.512;10.892;2022-08-03T08:49:58;97961.00;;;27.65;50.36
31501;BME280;31032;49.512;10.892;2022-08-03T08:52:25;97966.56;;;27.98;48.20
31501;BME280;31032;49.512;10.892;2022-08-03T08:54:55;97959.00;;;27.72;47.25
31501;BME280;31032;49.512;10.892;2022-08-03T08:57:23;97950.47;;;28.10;47.48
31501;BME280;31032;49.512;10.892;2022-08-03T08:59:50;97946.31;;;28.30;47.08
31501;BME280;31032;49.512;10.892;2022-08-03T09:02:17;97949.88;;;28.19;47.36
31501;BME280;31032;49.512;10.892;2022-08-03T09:04:43;97947.38;;;28.29;46.88
31501;BME280;31032;49.512;10.892;2022-08-03T09:07:09;97943.91;;;28.45;46.91
31501;BME280;31032;49.512;10.892;2022-08-03T09:12:19;97940.94;;;28.70;44.79
31501;BME280;31032;49.512;10.892;2022-08-03T09:14:44;97944.94;;;29.01;44.71
31501;BME280;31032;49.512;10.892;2022-08-03T09:17:10;97945.50;;;29.03;44.56
31501;BME280;31032;49.512;10.892;2022-08-03T09:19:35;97936.47;;;28.76;45.01
31501;BME280;31032;49.512;10.892;2022-08-03T09:22:11;97942.78;;;29.14;43.40
31501;BME280;31032;49.512;10.892;2022-08-03T09:24:37;97939.09;;;29.37;43.26
31501;BME280;31032;49.512;10.892;2022-08-03T09:27:10;97941.16;;;29.30;42.82
31501;BME280;31032;49.512;10.892;2022-08-03T09:29:37;97933.31;;;29.45;42.16
31501;BME280;31032;49.512;10.892;2022-08-03T09:32:03;97942.47;;;29.82;41.44
31501;BME280;31032;49.512;10.892;2022-08-03T09:34:29;97937.97;;;29.88;41.52
31501;BME280;31032;49.512;10.892;2022-08-03T09:36:54;97940.53;;;29.99;41.28
31501;BME280;31032;49.512;10.892;2022-08-03T09:39:26;97943.59;;;29.86;41.37
31501;BME280;31032;49.512;10.892;2022-08-03T09:42:14;97932.72;;;29.98;41.52
31501;BME280;31032;49.512;10.892;2022-08-03T09:44:46;97931.91;;;29.97;40.71
31501;BME280;31032;49.512;10.892;2022-08-03T09:47:14;97935.16;;;29.99;41.50
31501;BME280;31032;49.512;10.892;2022-08-03T09:49:41;97937.53;;;30.17;41.15
31501;BME280;31032;49.512;10.892;2022-08-03T09:52:17;97937.44;;;29.91;40.66
31501;BME280;31032;49.512;10.892;2022-08-03T09:54:46;97943.66;;;29.91;41.21
31501;BME280;31032;49.512;10.892;2022-08-03T09:57:23;97942.06;;;30.60;40.18
31501;BME280;31032;49.512;10.892;2022-08-03T09:59:50;97936.28;;;30.47;40.10
31501;BME280;31032;49.512;10.892;2022-08-03T10:02:26;97937.28;;;30.19;41.17
31501;BME280;31032;49.512;10.892;2022-08-03T10:04:52;97926.03;;;30.00;40.83
31501;BME280;31032;49.512;10.892;2022-08-03T10:07:23;97926.41;;;29.87;40.65
31501;BME280;31032;49.512;10.892;2022-08-03T10:09:54;97925.53;;;30.03;40.93
31501;BME280;31032;49.512;10.892;2022-08-03T10:12:20;97931.69;;;30.47;40.66
31501;BME280;31032;49.512;10.892;2022-08-03T10:14:45;97926.19;;;30.85;39.29
31501;BME280;31032;49.512;10.892;2022-08-03T10:17:11;97920.41;;;30.23;39.91
31501;BME280;31032;49.512;10.892;2022-08-03T10:19:37;97917.22;;;30.80;39.56
31501;BME280;31032;49.512;10.892;2022-08-03T10:22:11;97918.50;;;30.99;38.61
31501;BME280;31032;49.512;10.892;2022-08-03T10:24:39;97914.09;;;31.25;37.87
31501;BME280;31032;49.512;10.892;2022-08-03T10:27:10;97916.59;;;31.31;37.82
31501;BME280;31032;49.512;10.892;2022-08-03T10:29:38;97909.50;;;31.20;36.87
31501;BME280;31032;49.512;10.892;2022-08-03T10:32:12;97920.09;;;31.37;36.25
31501;BME280;31032;49.512;10.892;2022-08-03T10:34:41;97902.56;;;31.24;37.49
31501;BME280;31032;49.512;10.892;2022-08-03T10:37:10;97915.41;;;31.17;37.71
31501;BME280;31032;49.512;10.892;2022-08-03T10:39:36;97905.72;;;31.16;37.32
31501;BME280;31032;49.512;10.892;2022-08-03T10:42:02;97902.94;;;31.06;37.55
31501;BME280;31032;49.512;10.892;2022-08-03T10:44:36;97900.06;;;31.18;37.58
31501;BME280;31032;49.512;10.892;2022-08-03T10:47:04;97897.47;;;31.33;37.34
31501;BME280;31032;49.512;10.892;2022-08-03T10:49:30;97894.47;;;31.24;37.52
31501;BME280;31032;49.512;10.892;2022-08-03T10:51:56;97887.75;;;31.27;37.31
31501;BME280;31032;49.512;10.892;2022-08-03T10:56:59;97876.19;;;31.26;37.23
31501;BME280;31032;49.512;10.892;2022-08-03T11:02:13;97868.59;;;31.18;37.50
31501;BME280;31032;49.512;10.892;2022-08-03T11:04:39;97860.72;;;31.43;36.86
31501;BME280;31032;49.512;10.892;2022-08-03T11:09:41;97869.97;;;31.67;37.89
31501;BME280;31032;49.512;10.892;2022-08-03T11:12:27;97863.38;;;31.95;36.33
31501;BME280;31032;49.512;10.892;2022-08-03T11:14:54;97861.59;;;32.31;36.42
31501;BME280;31032;49.512;10.892;2022-08-03T11:17:20;97866.69;;;32.37;34.43
31501;BME280;31032;49.512;10.892;2022-08-03T11:19:48;97857.72;;;31.96;34.56
31501;BME280;31032;49.512;10.892;2022-08-03T11:22:14;97853.41;;;32.01;35.00
31501;BME280;31032;49.512;10.892;2022-08-03T11:35:17;97850.06;;;32.65;35.08
31501;BME280;31032;49.512;10.892;2022-08-03T11:40:49;97842.22;;;32.84;33.91
31501;BME280;31032;49.512;10.892;2022-08-03T11:48:32;97840.59;;;32.53;34.23
31501;BME280;31032;49.512;10.892;2022-08-03T11:51:06;97842.22;;;32.84;34.48
31501;BME280;31032;49.512;10.892;2022-08-03T11:53:32;97844.66;;;32.96;33.32
31501;BME280;31032;49.512;10.892;2022-08-03T11:55:59;97852.47;;;32.82;32.71
31501;BME280;31032;49.512;10.892;2022-08-03T11:58:25;97842.78;;;32.81;33.49
31501;BME280;31032;49.512;10.892;2022-08-03T12:00:51;97838.97;;;32.62;32.52
31501;BME280;31032;49.512;10.892;2022-08-03T12:03:19;97837.34;;;32.66;33.06
31501;BME280;31032;49.512;10.892;2022-08-03T12:05:50;97829.75;;;32.33;33.07
31501;BME280;31032;49.512;10.892;2022-08-03T12:10:50;97832.47;;;32.83;32.83
31501;BME280;31032;49.512;10.892;2022-08-03T12:13:17;97827.63;;;32.60;32.76
31501;BME280;31032;49.512;10.892;2022-08-03T12:15:43;97820.34;;;32.85;32.15
31501;BME280;31032;49.512;10.892;2022-08-03T12:18:16;97823.03;;;33.11;33.14
31501;BME280;31032;49.512;10.892;2022-08-03T12:20:43;97819.50;;;33.25;33.66
31501;BME280;31032;49.512;10.892;2022-08-03T12:23:09;97821.19;;;33.06;32.35
31501;BME280;31032;49.512;10.892;2022-08-03T12:25:36;97824.31;;;33.38;31.95
31501;BME280;31032;49.512;10.892;2022-08-03T12:28:20;97824.81;;;33.45;31.74
31501;BME280;31032;49.512;10.892;2022-08-03T12:30:49;97817.28;;;33.37;30.92
31501;BME280;31032;49.512;10.892;2022-08-03T12:33:19;97811.94;;;33.27;31.07
31501;BME280;31032;49.512;10.892;2022-08-03T12:36:10;97814.03;;;33.45;30.35
31501;BME280;31032;49.512;10.892;2022-08-03T12:38:37;97822.66;;;33.57;30.43
31501;BME280;31032;49.512;10.892;2022-08-03T12:41:09;97809.44;;;33.46;30.76
31501;BME280;31032;49.512;10.892;2022-08-03T12:43:50;97811.88;;;33.47;30.67
31501;BME280;31032;49.512;10.892;2022-08-03T12:46:18;97809.41;;;33.61;29.83
31501;BME280;31032;49.512;10.892;2022-08-03T12:49:04;97807.09;;;33.88;28.15
31501;BME280;31032;49.512;10.892;2022-08-03T12:51:33;97807.84;;;34.09;28.51
31501;BME280;31032;49.512;10.892;2022-08-03T12:53:59;97806.97;;;34.13;27.33
31501;BME280;31032;49.512;10.892;2022-08-03T12:56:25;97802.22;;;33.95;28.31
31501;BME280;31032;49.512;10.892;2022-08-03T12:58:50;97801.09;;;34.01;27.65
31501;BME280;31032;49.512;10.892;2022-08-03T13:01:17;97797.97;;;33.74;27.41
31501;BME280;31032;49.512;10.892;2022-08-03T13:03:44;97799.78;;;33.99;27.47
31501;BME280;31032;49.512;10.892;2022-08-03T13:06:15;97797.88;;;33.94;28.31
31501;BME280;31032;49.512;10.892;2022-08-03T13:08:41;97793.13;;;33.76;28.23
31501;BME280;31032;49.512;10.892;2022-08-03T13:11:24;97789.09;;;33.74;27.87
31501;BME280;31032;49.512;10.892;2022-08-03T13:13:51;97791.22;;;33.82;29.12
31501;BME280;31032;49.512;10.892;2022-08-03T13:16:17;97788.00;;;33.75;28.56
31501;BME280;31032;49.512;10.892;2022-08-03T13:18:43;97784.75;;;33.78;28.60
31501;BME280;31032;49.512;10.892;2022-08-03T13:21:11;97791.34;;;33.41;28.58
31501;BME280;31032;49.512;10.892;2022-08-03T13:23:37;97772.97;;;33.43;29.88
31501;BME280;31032;49.512;10.892;2022-08-03T13:26:02;97785.19;;;33.95;29.93
31501;BME280;31032;49.512;10.892;2022-08-03T13:28:27;97782.69;;;34.42;29.06
31501;BME280;31032;49.512;10.892;2022-08-03T13:30:53;97778.34;;;34.51;28.59
31501;BME280;31032;49.512;10.892;2022-08-03T13:33:19;97779.19;;;34.75;28.45
31501;BME280;31032;49.512;10.892;2022-08-03T13:35:44;97781.59;;;34.48;27.79